Time;durP1;ratioP1;P1;durP2;ratioP2;P2;SDS_P1;SDS_P2;PMS_P1;PMS_P2;Temp;Humidity;BMP_temperature;BMP_pressure;BME280_temperature;BME280_humidity;BME280_pressure;Samples;Min_cycle;Max_cycle;Signal;HPM_P1;HPM_P2
2023/03/31 00:00:56;;;;;;;7.13;3.40;;;;;;;19.41;49.26;101239.16;5053142;28;20051;-47
2023/03/31 00:03:24;;;;;;;4.82;3.03;;;;;;;19.41;49.20;101235.63;5053201;28;20052;-47
2023/03/31 00:05:57;;;;;;;7.00;3.30;;;;;;;19.40;49.34;101226.69;5053031;28;20045;-45
2023/03/31 00:08:33;;;;;;;6.72;3.67;;;;;;;19.40;49.19;101231.22;5053180;28;20049;-47
2023/03/31 00:11:06;;;;;;;8.88;3.25;;;;;;;19.40;49.18;101231.22;5053156;28;20053;-47
2023/03/31 00:13:35;;;;;;;6.38;3.83;;;;;;;19.40;49.14;101224.00;5052982;28;20056;-47
2023/03/31 00:16:07;;;;;;;6.07;3.08;;;;;;;19.39;49.11;101233.03;5053081;28;20518;-47
2023/03/31 00:18:36;;;;;;;4.50;3.15;;;;;;;19.37;49.19;101216.22;5053071;28;20411;-46
2023/03/31 00:21:23;;;;;;;5.70;3.38;;;;;;;19.37;49.17;101224.28;5053065;28;20056;-46
2023/03/31 00:23:58;;;;;;;5.28;2.90;;;;;;;19.39;49.13;101229.50;5052785;28;20522;-46
2023/03/31 00:26:27;;;;;;;4.68;3.03;;;;;;;19.39;49.12;101234.88;5053084;28;20044;-47
2023/03/31 00:28:55;;;;;;;5.78;3.45;;;;;;;19.39;49.05;101226.81;5056490;28;20060;-47
2023/03/31 00:31:23;;;;;;;9.30;3.00;;;;;;;19.37;48.94;101232.34;5055710;28;20525;-46
2023/03/31 00:33:50;;;;;;;5.57;3.28;;;;;;;19.37;49.06;101231.47;5055520;28;20056;-47
2023/03/31 00:36:26;;;;;;;5.15;3.38;;;;;;;19.37;49.08;101228.78;5056372;28;20045;-47
2023/03/31 00:38:58;;;;;;;4.82;3.13;;;;;;;19.38;49.00;101235.88;5056512;28;20051;-47
2023/03/31 00:41:26;;;;;;;;;;;;;;;19.36;49.00;101233.28;5057077;28;20060;-45
2023/03/31 00:44:07;;;;;;;5.70;2.88;;;;;;;19.36;49.00;101232.44;5055142;28;19928;-46
2023/03/31 00:46:44;;;;;;;4.30;2.83;;;;;;;19.37;48.99;101234.16;5055450;28;20041;-47
2023/03/31 00:49:19;;;;;;;6.03;2.80;;;;;;;19.36;48.85;101227.06;5056339;28;20475;-46
2023/03/31 00:51:51;;;;;;;4.22;2.88;;;;;;;19.36;49.01;101227.06;5055104;28;20439;-46
2023/03/31 00:54:20;;;;;;;6.13;3.70;;;;;;;19.36;49.10;101221.69;5055800;28;20052;-46
2023/03/31 00:56:51;;;;;;;5.20;3.22;;;;;;;19.36;48.95;101219.00;5055920;28;20057;-46
2023/03/31 00:59:23;;;;;;;6.65;3.33;;;;;;;19.35;48.94;101209.25;5056114;28;20053;-46
2023/03/31 01:01:51;;;;;;;4.70;3.10;;;;;;;19.35;48.89;101196.69;5054825;28;20053;-46
2023/03/31 01:04:21;;;;;;;10.52;3.60;;;;;;;19.35;48.99;101177.88;5055749;28;20487;-50
2023/03/31 01:07:17;;;;;;;4.88;2.65;;;;;;;19.35;48.95;101183.25;5055691;28;20048;-49
2023/03/31 01:09:46;;;;;;;5.43;3.13;;;;;;;19.34;49.02;101178.88;5054753;28;20049;-49
2023/03/31 01:12:16;;;;;;;4.35;3.05;;;;;;;19.35;48.95;101183.25;5056055;28;20048;-48
2023/03/31 01:14:44;;;;;;;5.03;3.17;;;;;;;19.34;49.00;101180.72;5054900;28;20492;-49
2023/03/31 01:17:17;;;;;;;8.20;3.45;;;;;;;19.35;48.91;101177.03;5055782;28;20479;-47
2023/03/31 01:20:22;;;;;;;4.95;2.83;;;;;;;19.35;49.07;101177.03;5055709;28;20049;-49
2023/03/31 01:23:06;;;;;;;7.28;2.95;;;;;;;19.34;49.11;101165.44;5055652;28;20057;-46
2023/03/31 01:25:41;;;;;;;6.22;3.10;;;;;;;19.33;48.94;101163.75;5055371;28;20052;-48
2023/03/31 01:28:34;;;;;;;4.47;3.42;;;;;;;19.34;48.91;101164.59;5055543;28;20041;-46
2023/03/31 01:31:38;;;;;;;5.10;2.80;;;;;;;19.33;48.88;101169.13;5055700;28;20052;-49
2023/03/31 01:34:49;;;;;;;6.20;3.47;;;;;;;19.33;49.09;101163.75;5055462;28;20049;-47
2023/03/31 01:37:36;;;;;;;4.20;2.95;;;;;;;19.33;48.98;101157.53;5055463;28;20045;-46
2023/03/31 01:40:09;;;;;;;3.83;2.58;;;;;;;19.33;48.95;101154.84;5055221;28;20056;-47
2023/03/31 01:42:55;;;;;;;;;;;;;;;19.33;49.11;101147.66;5055862;28;20045;-47
2023/03/31 01:45:37;;;;;;;4.70;2.92;;;;;;;19.33;48.90;101138.75;5054441;28;20393;-48
2023/03/31 01:48:17;;;;;;;4.45;2.75;;;;;;;19.33;49.00;101136.06;5055136;28;20048;-45
2023/03/31 01:50:55;;;;;;;4.18;3.10;;;;;;;19.33;49.04;101136.06;5055871;28;20045;-46
2023/03/31 01:53:50;;;;;;;5.60;2.80;;;;;;;19.31;48.95;101130.78;5054896;28;20049;-46
2023/03/31 01:56:21;;;;;;;6.88;2.90;;;;;;;19.32;48.97;101137.84;5055100;28;20119;-47
2023/03/31 01:59:13;;;;;;;3.83;2.58;;;;;;;19.32;49.16;101128.97;5053927;28;20060;-47
2023/03/31 02:01:52;;;;;;;6.88;2.90;;;;;;;19.32;49.12;101128.97;5055007;28;20053;-47
2023/03/31 02:04:29;;;;;;;5.50;2.80;;;;;;;19.31;49.06;101119.22;5053740;28;20072;-47
2023/03/31 02:07:07;;;;;;;4.88;2.72;;;;;;;19.31;49.20;101111.16;5054771;28;20057;-47
2023/03/31 02:09:40;;;;;;;4.60;3.05;;;;;;;19.31;49.10;101106.63;5053292;28;20053;-48
2023/03/31 02:12:09;;;;;;;;;;;;;;;19.31;49.21;101097.72;5053425;28;20048;-51
2023/03/31 02:14:42;;;;;;;5.93;2.97;;;;;;;19.31;49.17;101103.09;5054893;28;20355;-48
2023/03/31 02:17:16;;;;;;;;;;;;;;;19.31;49.22;101101.25;5055057;28;20238;-47
2023/03/31 02:19:49;;;;;;;3.88;2.45;;;;;;;19.30;49.21;101093.34;5054380;28;19928;-47
2023/03/31 02:22:20;;;;;;;6.80;3.25;;;;;;;19.30;49.18;101085.28;5054256;28;20430;-47
2023/03/31 02:24:51;;;;;;;5.28;3.40;;;;;;;19.30;49.06;101090.66;5053949;28;20076;-47
2023/03/31 02:27:25;;;;;;;5.95;2.90;;;;;;;19.30;49.15;101104.94;5052616;28;20045;-48
2023/03/31 02:29:54;;;;;;;4.28;2.80;;;;;;;19.29;49.11;101081.75;5053315;28;20056;-47
2023/03/31 02:32:41;;;;;;;4.72;2.33;;;;;;;19.29;49.29;101081.75;5054250;28;20053;-47
2023/03/31 02:35:14;;;;;;;5.65;2.85;;;;;;;19.29;49.12;101086.28;5053271;28;20049;-46
2023/03/31 02:37:42;;;;;;;5.90;2.63;;;;;;;19.29;49.17;101087.13;5054180;28;20052;-46
2023/03/31 02:40:18;;;;;;;3.47;2.15;;;;;;;19.29;49.13;101084.44;5053209;28;20495;-46
2023/03/31 02:42:45;;;;;;;;;;;;;;;19.29;49.08;101080.91;5054618;28;20053;-48
2023/03/31 02:45:40;;;;;;;6.35;2.58;;;;;;;19.30;49.07;101091.50;5054285;28;19920;-47
2023/03/31 02:48:15;;;;;;;4.47;2.65;;;;;;;19.28;49.25;101098.81;5054211;28;20049;-46
2023/03/31 02:51:02;;;;;;;5.13;2.85;;;;;;;19.29;49.09;101107.75;5052315;28;20053;-47
2023/03/31 02:54:06;;;;;;;3.88;2.90;;;;;;;19.27;49.11;101107.84;5053932;28;20052;-47
2023/03/31 02:57:02;;;;;;;5.70;3.28;;;;;;;19.27;49.24;101105.19;5051695;28;20044;-48
2023/03/31 02:59:36;;;;;;;5.43;3.30;;;;;;;19.27;49.20;101108.72;5052806;28;20064;-47
2023/03/31 03:02:16;;;;;;;4.47;3.03;;;;;;;19.26;49.18;101109.69;5052103;28;20049;-48
2023/03/31 03:05:22;;;;;;;4.55;2.55;;;;;;;19.27;49.05;101107.84;5053647;28;20526;-47
2023/03/31 03:08:30;;;;;;;3.65;2.60;;;;;;;19.26;49.20;101096.28;5053406;28;20049;-49
2023/03/31 03:11:10;;;;;;;5.03;2.80;;;;;;;19.26;49.34;101098.97;5053684;28;20502;-49
2023/03/31 03:13:51;;;;;;;6.75;3.00;;;;;;;19.26;49.36;101098.97;5053635;28;20072;-48
2023/03/31 03:16:34;;;;;;;5.72;2.53;;;;;;;19.26;49.48;101090.91;5052208;28;20065;-47
2023/03/31 03:19:05;;;;;;;4.55;2.17;;;;;;;19.27;49.35;101095.28;5053631;28;20053;-47
2023/03/31 03:21:33;;;;;;;5.45;2.58;;;;;;;19.27;49.48;101083.69;5053460;28;20052;-49
2023/03/31 03:24:00;;;;;;;4.55;2.45;;;;;;;19.26;49.59;101080.16;5053226;28;20060;-49
2023/03/31 03:26:28;;;;;;;4.30;2.75;;;;;;;19.26;49.49;101076.63;5053429;28;20048;-46
2023/03/31 03:28:56;;;;;;;4.90;2.63;;;;;;;19.26;49.43;101073.94;5053422;28;20045;-48
2023/03/31 03:31:24;;;;;;;5.28;2.63;;;;;;;19.26;49.38;101077.47;5053427;28;20048;-49
2023/03/31 03:33:52;;;;;;;5.00;2.30;;;;;;;19.26;49.45;101071.25;5053304;28;20049;-46
2023/03/31 03:36:20;;;;;;;5.03;2.08;;;;;;;19.25;49.27;101062.38;5053310;28;20052;-46
2023/03/31 03:38:48;;;;;;;4.80;2.40;;;;;;;19.26;49.44;101052.47;5053386;28;20045;-46
2023/03/31 03:41:15;;;;;;;4.43;2.53;;;;;;;19.25;49.29;101054.31;5053293;28;20048;-46
2023/03/31 03:43:42;;;;;;;4.20;2.42;;;;;;;19.24;49.29;101041.00;5053317;28;20045;-47
2023/03/31 03:46:10;;;;;;;4.63;2.67;;;;;;;19.25;49.29;101048.09;5053357;28;20427;-47
2023/03/31 03:48:37;;;;;;;6.45;2.97;;;;;;;19.26;49.33;101052.47;5053222;28;20395;-48
2023/03/31 03:51:05;;;;;;;4.20;2.40;;;;;;;19.25;49.37;101040.91;5053004;28;20056;-49
2023/03/31 03:53:32;;;;;;;4.70;2.72;;;;;;;19.24;49.37;101041.88;5053071;28;20041;-46
2023/03/31 03:56:00;;;;;;;4.70;2.28;;;;;;;19.24;49.39;101039.19;5053196;28;20044;-48
2023/03/31 03:58:27;;;;;;;5.18;3.10;;;;;;;19.23;49.44;101034.78;5053150;28;20045;-48
2023/03/31 04:00:55;;;;;;;5.18;2.63;;;;;;;19.24;49.38;101041.00;5053620;28;20045;-48
2023/03/31 04:03:23;;;;;;;6.95;2.70;;;;;;;19.22;49.38;101035.78;5056898;28;20052;-48
2023/03/31 04:05:50;;;;;;;5.15;2.75;;;;;;;19.23;49.40;101036.63;5057193;28;20491;-47
2023/03/31 04:08:18;;;;;;;4.88;2.78;;;;;;;19.23;49.18;101029.41;5057069;28;20616;-46
2023/03/31 04:10:47;;;;;;;4.35;3.08;;;;;;;19.22;49.36;101030.41;5056981;28;20049;-46
2023/03/31 04:13:16;;;;;;;3.63;2.75;;;;;;;19.23;49.41;101040.16;5056985;28;20056;-48
2023/03/31 04:15:44;;;;;;;6.95;2.85;;;;;;;19.22;49.26;101056.38;5056828;28;20045;-46
2023/03/31 04:18:21;;;;;;;4.50;2.70;;;;;;;19.22;49.50;101049.19;5056609;28;20407;-46
2023/03/31 04:21:04;;;;;;;3.80;2.50;;;;;;;19.23;49.50;101047.34;5056890;28;20056;-46
2023/03/31 04:23:33;;;;;;;4.30;2.92;;;;;;;19.23;49.50;101060.78;5056595;28;20076;-48
2023/03/31 04:26:01;;;;;;;4.30;2.47;;;;;;;19.23;49.54;101060.78;5056673;28;20060;-48
2023/03/31 04:28:33;;;;;;;4.43;2.58;;;;;;;19.22;49.51;101043.81;5056611;28;20052;-46
2023/03/31 04:31:02;;;;;;;6.45;2.70;;;;;;;19.22;49.54;101038.44;5056677;28;20049;-45
2023/03/31 04:33:29;;;;;;;3.38;2.45;;;;;;;19.23;49.68;101034.78;5056524;28;20044;-49
2023/03/31 04:35:57;;;;;;;4.35;2.25;;;;;;;19.22;49.59;101033.09;5056642;28;20068;-46
2023/03/31 04:38:26;;;;;;;5.72;3.05;;;;;;;19.23;49.79;101044.66;5056468;28;20048;-46
2023/03/31 04:40:53;;;;;;;4.50;2.72;;;;;;;19.22;49.59;101049.19;5056391;28;20052;-46
2023/03/31 04:43:20;;;;;;;6.00;2.50;;;;;;;19.21;49.59;101047.50;5056571;28;20479;-46
2023/03/31 04:45:48;;;;;;;8.60;2.60;;;;;;;19.21;49.71;101052.84;5056353;28;20468;-49
2023/03/31 04:48:15;;;;;;;5.78;2.65;;;;;;;19.21;49.34;101041.28;5056265;28;20037;-48
2023/03/31 04:50:45;;;;;;;6.68;3.00;;;;;;;19.21;49.54;101042.13;5055025;28;20471;-47
2023/03/31 04:53:13;;;;;;;8.32;2.75;;;;;;;19.21;49.59;101041.28;5056034;28;20487;-46
2023/03/31 04:55:40;;;;;;;5.43;2.88;;;;;;;19.21;49.59;101033.22;5056018;28;20056;-49
2023/03/31 04:58:07;;;;;;;5.93;2.95;;;;;;;19.21;49.87;101033.22;5055968;28;20049;-49
2023/03/31 05:00:34;;;;;;;4.40;2.50;;;;;;;19.19;49.59;101025.28;5056065;28;20048;-50
2023/03/31 05:03:02;;;;;;;6.10;2.60;;;;;;;19.19;49.62;101022.59;5055751;28;20056;-49
2023/03/31 05:05:29;;;;;;;3.55;2.15;;;;;;;19.20;49.60;101027.00;5056049;28;20052;-47
2023/03/31 05:07:57;;;;;;;8.38;2.72;;;;;;;19.20;49.47;101026.13;5055712;28;20139;-48
2023/03/31 05:10:24;;;;;;;5.50;2.88;;;;;;;19.19;49.77;101022.59;5055672;28;20459;-46
2023/03/31 05:12:51;;;;;;;3.85;2.50;;;;;;;19.19;49.57;101017.22;5055002;28;20048;-46
2023/03/31 05:15:19;;;;;;;4.93;2.40;;;;;;;19.19;49.84;101011.00;5055658;28;20045;-46
2023/03/31 05:17:46;;;;;;;4.80;2.80;;;;;;;19.19;49.67;101016.38;5055240;28;20379;-47
2023/03/31 05:20:14;;;;;;;7.68;2.75;;;;;;;19.18;49.42;101015.53;5055722;28;20045;-50
2023/03/31 05:22:41;;;;;;;5.45;2.58;;;;;;;19.17;49.67;101008.47;5055911;28;20052;-49
2023/03/31 05:25:17;;;;;;;8.40;3.55;;;;;;;19.18;49.69;100999.44;5055451;28;20056;-48
2023/03/31 05:27:47;;;;;;;3.67;2.78;;;;;;;19.18;49.71;101006.63;5055649;28;20049;-45
2023/03/31 05:30:15;;;;;;;3.28;1.98;;;;;;;19.17;49.40;101008.47;5055314;28;20095;-46
2023/03/31 05:32:43;;;;;;;3.75;2.63;;;;;;;19.17;49.69;101010.28;5055399;28;20049;-49
2023/03/31 05:35:10;;;;;;;6.95;3.03;;;;;;;19.17;49.56;101002.25;5055637;28;20041;-48
2023/03/31 05:37:38;;;;;;;4.32;2.15;;;;;;;19.17;49.47;101003.09;5055261;28;20045;-47
2023/03/31 05:40:08;;;;;;;5.68;3.25;;;;;;;19.16;49.39;101006.75;5055460;28;20048;-47
2023/03/31 05:42:36;;;;;;;6.18;2.85;;;;;;;19.17;49.39;101015.66;5055224;28;20055;-47
2023/03/31 05:45:04;;;;;;;3.58;2.25;;;;;;;19.16;49.50;101012.13;5055165;28;20045;-48
2023/03/31 05:47:35;;;;;;;5.10;2.80;;;;;;;19.16;49.47;101008.56;5055142;28;20052;-46
2023/03/31 05:50:06;;;;;;;6.90;2.97;;;;;;;19.15;49.42;100994.31;5055067;28;20053;-46
2023/03/31 05:52:34;;;;;;;4.25;2.60;;;;;;;19.15;49.44;100980.88;5055063;28;20049;-46
2023/03/31 05:55:03;;;;;;;4.18;2.70;;;;;;;19.15;49.43;100986.25;5054367;28;20053;-48
2023/03/31 05:57:30;;;;;;;3.70;2.17;;;;;;;19.15;49.37;100988.09;5054837;28;20052;-47
2023/03/31 05:59:58;;;;;;;4.60;2.83;;;;;;;19.15;49.38;100999.66;5054827;28;20056;-49
2023/03/31 06:02:25;;;;;;;4.15;2.25;;;;;;;19.15;49.42;101013.09;5054871;28;20064;-48
2023/03/31 06:04:53;;;;;;;4.18;2.67;;;;;;;19.15;49.31;101001.50;5054990;28;20537;-50
2023/03/31 06:07:23;;;;;;;6.20;2.72;;;;;;;19.15;49.34;101009.56;5054845;28;20037;-48
2023/03/31 06:09:51;;;;;;;4.10;2.30;;;;;;;19.15;49.26;101002.34;5054747;28;20051;-47
2023/03/31 06:12:18;;;;;;;4.13;2.42;;;;;;;19.14;49.35;101000.66;5054724;28;20415;-49
2023/03/31 06:14:45;;;;;;;4.10;2.35;;;;;;;19.15;49.18;101001.50;5054552;28;20049;-47
2023/03/31 06:17:13;;;;;;;3.25;2.33;;;;;;;19.14;49.38;101003.34;5054601;28;20060;-48
2023/03/31 06:19:40;;;;;;;3.83;2.30;;;;;;;19.14;49.46;101011.38;5054577;28;20041;-47
2023/03/31 06:22:07;;;;;;;4.20;2.60;;;;;;;19.15;49.46;101004.19;5054562;28;20041;-48
2023/03/31 06:24:34;;;;;;;4.32;2.40;;;;;;;19.14;49.35;100991.75;5053532;28;20053;-49
2023/03/31 06:27:02;;;;;;;4.03;2.35;;;;;;;19.14;49.21;100991.75;5054529;28;20044;-49
2023/03/31 06:29:30;;;;;;;5.15;2.70;;;;;;;19.13;49.32;100985.53;5054333;28;20403;-49
2023/03/31 06:31:57;;;;;;;4.68;2.45;;;;;;;19.13;49.40;100980.19;5054342;28;20060;-48
2023/03/31 06:34:25;;;;;;;3.88;2.42;;;;;;;19.14;49.29;100976.50;5054349;28;20041;-47
2023/03/31 06:36:52;;;;;;;4.57;2.70;;;;;;;19.14;49.31;100975.66;5054540;28;20595;-48
2023/03/31 06:39:19;;;;;;;5.10;2.60;;;;;;;19.15;49.19;100982.72;5053918;28;20387;-49
2023/03/31 06:41:47;;;;;;;6.20;2.60;;;;;;;19.14;49.36;100972.97;5053977;28;20049;-48
2023/03/31 06:44:24;;;;;;;7.30;3.25;;;;;;;19.14;49.41;100970.28;5052251;28;20045;-47
2023/03/31 06:46:51;;;;;;;4.20;2.63;;;;;;;19.14;49.39;100963.09;5054041;28;20045;-49
2023/03/31 06:49:18;;;;;;;7.75;2.97;;;;;;;19.15;49.48;100955.88;5054099;28;20052;-49
2023/03/31 06:51:46;;;;;;;8.25;2.60;;;;;;;19.15;49.29;100955.88;5053926;28;20383;-50
2023/03/31 06:54:13;;;;;;;7.57;2.92;;;;;;;19.14;49.12;100947.00;5053829;28;20053;-49
2023/03/31 06:56:40;;;;;;;5.95;2.50;;;;;;;19.15;49.22;100946.00;5053915;28;20471;-48
2023/03/31 06:59:08;;;;;;;5.40;2.88;;;;;;;19.15;49.20;100939.78;5053823;28;20048;-49
2023/03/31 07:01:37;;;;;;;4.35;2.38;;;;;;;19.15;49.22;100934.41;5053906;28;20044;-48
2023/03/31 07:04:05;;;;;;;5.68;2.30;;;;;;;19.13;49.18;100931.88;5053793;28;20045;-48
2023/03/31 07:06:33;;;;;;;6.75;2.65;;;;;;;19.14;49.29;100917.47;5053425;28;20480;-50
2023/03/31 07:09:00;;;;;;;5.13;2.15;;;;;;;19.14;49.04;100920.16;5053768;28;20045;-50
2023/03/31 07:11:28;;;;;;;6.68;2.95;;;;;;;19.14;49.08;100922.84;5053757;28;20044;-49
2023/03/31 07:13:55;;;;;;;11.00;2.58;;;;;;;19.14;49.09;100928.19;5053625;28;20517;-51
2023/03/31 07:16:22;;;;;;;6.72;2.58;;;;;;;19.15;49.04;100924.53;5053170;28;20049;-50
2023/03/31 07:18:53;;;;;;;5.75;2.92;;;;;;;19.15;49.10;100921.84;5052918;28;20055;-48
2023/03/31 07:21:20;;;;;;;6.95;2.83;;;;;;;19.16;49.18;100904.78;5053256;28;20052;-48
2023/03/31 07:23:47;;;;;;;6.38;2.33;;;;;;;19.18;48.93;100907.31;5051795;28;20063;-50
2023/03/31 07:26:15;;;;;;;3.72;2.50;;;;;;;19.19;49.01;100911.72;5053154;28;20577;-49
2023/03/31 07:28:42;;;;;;;6.63;2.83;;;;;;;19.19;48.95;100904.50;5053406;28;20045;-49
2023/03/31 07:31:11;;;;;;;6.40;2.60;;;;;;;19.19;48.61;100898.28;5053008;28;20071;-50
2023/03/31 07:33:39;;;;;;;7.75;3.22;;;;;;;19.20;48.60;100890.13;5053148;28;20049;-47
2023/03/31 07:36:07;;;;;;;4.95;2.47;;;;;;;19.21;48.55;100878.41;5052888;28;20368;-49
2023/03/31 07:38:41;;;;;;;7.82;3.63;;;;;;;19.22;48.27;100871.19;5052951;28;20049;-50
2023/03/31 07:41:11;;;;;;;9.10;3.45;;;;;;;19.22;48.34;100874.72;5053057;28;20048;-46
2023/03/31 07:43:39;;;;;;;4.57;3.15;;;;;;;19.23;48.22;100867.53;5052821;28;20056;-48
2023/03/31 07:46:13;;;;;;;7.00;3.38;;;;;;;19.23;48.06;100860.31;5053212;28;20055;-49
2023/03/31 07:48:40;;;;;;;5.32;2.92;;;;;;;19.25;48.19;100862.91;5052942;28;20044;-47
2023/03/31 07:51:07;;;;;;;7.07;3.20;;;;;;;19.25;48.13;100855.69;5053076;28;20040;-47
2023/03/31 07:53:36;;;;;;;6.40;3.03;;;;;;;19.26;48.23;100852.00;5052643;28;20061;-48
2023/03/31 07:56:04;;;;;;;8.45;3.33;;;;;;;19.26;48.23;100865.44;5053047;28;20049;-50
2023/03/31 07:58:31;;;;;;;4.55;2.88;;;;;;;19.26;48.10;100876.19;5052611;28;20049;-48
2023/03/31 08:00:59;;;;;;;7.22;3.47;;;;;;;19.27;48.29;100868.97;5052586;28;20045;-47
2023/03/31 08:03:27;;;;;;;6.95;4.28;;;;;;;19.27;48.61;100861.75;5052449;28;20053;-46
2023/03/31 08:05:55;;;;;;;7.13;3.33;;;;;;;19.29;48.65;100861.66;5053006;28;20683;-50
2023/03/31 08:08:22;;;;;;;5.22;2.50;;;;;;;19.29;48.52;100871.53;5052967;28;20360;-45
2023/03/31 08:10:50;;;;;;;5.15;2.42;;;;;;;19.30;48.50;100865.19;5052857;28;20045;-46
2023/03/31 08:13:17;;;;;;;4.85;2.63;;;;;;;19.30;48.78;100873.25;5052851;28;20049;-46
2023/03/31 08:15:45;;;;;;;6.40;3.15;;;;;;;19.30;48.78;100867.88;5052839;28;20368;-47
2023/03/31 08:18:12;;;;;;;4.57;2.65;;;;;;;19.32;48.38;100873.94;5052702;28;20052;-45
2023/03/31 08:20:40;;;;;;;5.22;2.75;;;;;;;19.30;48.61;100874.09;5052658;28;20052;-47
2023/03/31 08:23:10;;;;;;;10.95;4.47;;;;;;;19.31;48.41;100877.63;5052833;28;20391;-47
2023/03/31 08:25:37;;;;;;;5.80;3.50;;;;;;;19.29;48.52;100869.72;5052473;28;20790;-51
2023/03/31 08:28:05;;;;;;;8.00;3.08;;;;;;;19.31;48.66;100873.09;5052778;28;20056;-48
2023/03/31 08:30:33;;;;;;;6.85;3.70;;;;;;;19.30;48.79;100870.56;5052625;28;20479;-48
2023/03/31 08:33:00;;;;;;;11.95;3.85;;;;;;;19.31;48.41;100864.19;5052645;28;20045;-46
2023/03/31 08:35:28;;;;;;;12.80;4.65;;;;;;;19.30;47.84;100875.91;5052312;28;20056;-47
2023/03/31 08:37:55;;;;;;;6.65;3.72;;;;;;;19.30;48.20;100874.09;5052463;28;20052;-47
2023/03/31 08:40:26;;;;;;;8.90;4.38;;;;;;;19.30;47.49;100867.88;5052724;28;20053;-49
2023/03/31 08:43:12;;;;;;;6.80;3.67;;;;;;;19.30;47.49;100862.50;5052527;28;20053;-47
2023/03/31 08:45:43;;;;;;;8.00;3.88;;;;;;;19.29;47.64;100845.53;5052404;28;20049;-50
2023/03/31 08:48:33;;;;;;;7.03;3.55;;;;;;;19.30;47.26;100827.59;5053425;28;20048;-48
2023/03/31 08:51:31;;;;;;;6.68;4.60;;;;;;;19.30;47.47;100816.88;5055895;28;20049;-48
2023/03/31 08:54:20;;;;;;;9.35;4.25;;;;;;;19.30;47.58;100822.22;5055797;28;20396;-51
2023/03/31 08:56:50;;;;;;;9.38;4.72;;;;;;;19.30;47.40;100817.72;5055752;28;20053;-50
2023/03/31 08:59:32;;;;;;;7.82;4.65;;;;;;;19.30;47.45;100832.97;5055719;28;20037;-50
2023/03/31 09:02:22;;;;;;;6.00;3.58;;;;;;;19.30;47.65;100824.91;5035903;28;20068;-49
2023/03/31 09:05:12;;;;;;;4.70;3.17;;;;;;;19.32;48.01;100822.94;5035722;28;20049;-48
2023/03/31 09:08:04;;;;;;;5.35;2.30;;;;;;;19.33;48.19;100830.88;5035625;28;20052;-46
2023/03/31 09:11:03;;;;;;;5.40;2.50;;;;;;;19.35;48.50;100841.47;5035431;28;20052;-48
2023/03/31 09:13:50;;;;;;;6.45;2.55;;;;;;;19.35;48.33;100849.53;5035529;28;20060;-51
2023/03/31 09:16:59;;;;;;;6.07;2.65;;;;;;;19.35;48.30;100842.31;5035449;28;20395;-52
2023/03/31 09:19:48;;;;;;;4.53;2.50;;;;;;;19.36;48.35;100835.97;5034060;28;20058;-55
2023/03/31 09:22:30;;;;;;;4.93;2.15;;;;;;;19.37;48.31;100828.78;5033826;28;20053;-48
2023/03/31 09:25:12;;;;;;;5.38;2.67;;;;;;;19.37;48.35;100826.09;5035472;28;20061;-48
2023/03/31 09:27:42;;;;;;;4.70;2.78;;;;;;;19.38;48.29;100825.09;5035355;28;20049;-49
2023/03/31 09:30:10;;;;;;;6.72;2.88;;;;;;;19.38;48.16;100817.06;5035713;28;20096;-47
2023/03/31 09:32:38;;;;;;;5.28;2.70;;;;;;;19.37;48.39;100805.47;5035388;28;20064;-49
2023/03/31 09:35:25;;;;;;;7.95;3.47;;;;;;;19.37;48.35;100810.84;5035298;28;20476;-49
2023/03/31 09:37:53;;;;;;;6.55;2.85;;;;;;;19.37;48.45;100808.16;5035689;28;20057;-49
2023/03/31 09:40:24;;;;;;;4.80;2.28;;;;;;;19.40;48.47;100804.34;5035053;28;20053;-48
2023/03/31 09:43:05;;;;;;;7.30;2.67;;;;;;;19.39;48.64;100805.31;5035076;28;20060;-50
2023/03/31 09:45:33;;;;;;;10.60;5.15;;;;;;;19.42;49.13;100807.75;5034897;28;20050;-49
2023/03/31 09:48:11;;;;;;;14.43;6.38;;;;;;;19.43;50.51;100799.56;5034815;28;20052;-48
2023/03/31 09:50:47;;;;;;;12.23;6.32;;;;;;;19.44;49.75;100808.47;5035206;28;20408;-49
2023/03/31 09:53:24;;;;;;;16.52;6.30;;;;;;;19.43;49.58;100799.56;5033741;28;20041;-47
2023/03/31 09:55:55;;;;;;;14.82;8.73;;;;;;;19.43;50.54;100788.81;5034854;28;20048;-50
2023/03/31 09:58:23;;;;;;;18.10;8.05;;;;;;;19.43;50.01;100778.06;5034889;28;20380;-53
2023/03/31 10:01:01;;;;;;;15.68;9.45;;;;;;;19.43;49.62;100783.44;5034565;28;20045;-49
2023/03/31 10:03:35;;;;;;;14.07;8.35;;;;;;;19.41;49.28;100769.31;5033298;28;20049;-48
2023/03/31 10:06:14;;;;;;;13.68;6.90;;;;;;;19.40;49.14;100751.50;5033579;28;20080;-50
2023/03/31 10:08:50;;;;;;;12.35;6.90;;;;;;;19.41;48.96;100752.38;5034511;28;20049;-49
2023/03/31 10:11:17;;;;;;;9.07;6.10;;;;;;;19.39;48.60;100752.47;5034206;28;20053;-49
2023/03/31 10:13:57;;;;;;;11.48;6.07;;;;;;;19.41;48.92;100738.94;5034294;28;20046;-50
2023/03/31 10:16:32;;;;;;;10.10;5.25;;;;;;;19.42;49.10;100716.47;5034700;28;20049;-47
2023/03/31 10:19:15;;;;;;;10.02;4.82;;;;;;;19.43;49.36;100710.13;5034405;28;20038;-47
2023/03/31 10:21:45;;;;;;;7.68;4.07;;;;;;;19.43;49.36;100702.91;5033683;28;20049;-48
2023/03/31 10:24:17;;;;;;;9.27;3.95;;;;;;;19.43;49.12;100696.69;5034582;28;20045;-51
2023/03/31 10:26:52;;;;;;;9.52;3.60;;;;;;;19.43;49.28;100686.81;5034345;28;20495;-49
2023/03/31 10:29:28;;;;;;;8.75;4.10;;;;;;;19.43;49.13;100686.81;5034140;28;20048;-50
2023/03/31 10:32:03;;;;;;;7.78;3.67;;;;;;;19.44;49.25;100677.75;5033632;28;20060;-50
2023/03/31 10:34:31;;;;;;;7.97;4.07;;;;;;;19.44;48.82;100675.06;5034315;28;20489;-47
2023/03/31 10:36:58;;;;;;;7.20;3.75;;;;;;;19.44;49.17;100664.31;5034051;28;20041;-50
2023/03/31 10:39:31;;;;;;;8.20;3.65;;;;;;;19.45;49.22;100657.16;5034072;28;20045;-50
2023/03/31 10:41:59;;;;;;;6.18;3.47;;;;;;;19.45;49.21;100647.25;5033840;28;20050;-49
2023/03/31 10:44:40;;;;;;;9.50;3.90;;;;;;;19.46;49.09;100637.38;5033967;28;20057;-48
2023/03/31 10:47:18;;;;;;;10.05;3.92;;;;;;;19.46;49.07;100640.91;5033861;28;20053;-48
2023/03/31 10:49:50;;;;;;;6.78;3.22;;;;;;;19.47;49.20;100633.69;5049264;28;20049;-47
2023/03/31 10:52:21;;;;;;;6.13;3.03;;;;;;;19.47;49.28;100636.38;5053732;28;20407;-48
2023/03/31 10:54:57;;;;;;;5.93;2.65;;;;;;;19.47;49.09;100631.00;5053542;28;20048;-51
2023/03/31 10:57:42;;;;;;;5.95;2.70;;;;;;;19.47;49.05;100614.88;5053392;28;20041;-50
2023/03/31 11:00:29;;;;;;;7.10;3.58;;;;;;;19.47;48.87;100613.06;5053489;28;20052;-50
2023/03/31 11:03:38;;;;;;;9.10;3.03;;;;;;;19.47;48.84;100607.69;5053666;28;20049;-49
2023/03/31 11:06:19;;;;;;;8.48;3.55;;;;;;;19.47;48.96;100596.94;5052445;28;20068;-49
2023/03/31 11:09:17;;;;;;;5.55;2.67;;;;;;;19.49;48.99;100592.28;5052473;28;20064;-48
2023/03/31 11:11:53;;;;;;;5.68;2.42;;;;;;;19.49;48.97;100572.66;5052710;28;20056;-49
2023/03/31 11:14:40;;;;;;;7.00;2.80;;;;;;;19.49;49.02;100567.28;5053363;28;20057;-51
2023/03/31 11:17:38;;;;;;;8.10;3.03;;;;;;;19.49;49.01;100564.59;5053153;28;20068;-50
2023/03/31 11:20:23;;;;;;;6.28;2.85;;;;;;;19.48;49.04;100550.31;5053055;28;20041;-50
2023/03/31 11:22:56;;;;;;;7.32;2.85;;;;;;;19.49;48.92;100548.50;5053300;28;20055;-50
2023/03/31 11:25:32;;;;;;;6.40;2.50;;;;;;;19.49;49.07;100541.28;5052700;28;20057;-52
2023/03/31 11:28:25;;;;;;;5.35;2.47;;;;;;;19.49;48.86;100533.22;5052922;28;20048;-51
2023/03/31 11:31:10;;;;;;;5.80;2.92;;;;;;;19.48;48.91;100526.16;5053013;28;20041;-48
2023/03/31 11:34:03;;;;;;;8.45;3.13;;;;;;;19.49;49.00;100521.66;5052760;28;20516;-50
2023/03/31 11:36:56;;;;;;;4.70;2.65;;;;;;;19.49;49.05;100530.53;5052417;28;20061;-48
2023/03/31 11:39:32;;;;;;;5.22;2.97;;;;;;;19.50;49.00;100520.66;5051741;28;20059;-48
2023/03/31 11:42:22;;;;;;;5.65;2.63;;;;;;;19.50;49.02;100524.19;5052803;28;20352;-48
2023/03/31 11:44:56;;;;;;;5.85;2.63;;;;;;;19.50;48.90;100520.66;5053057;28;20060;-51
2023/03/31 11:47:29;;;;;;;6.53;3.20;;;;;;;19.50;48.99;100531.41;5052786;28;20052;-50
2023/03/31 11:50:02;;;;;;;4.18;2.33;;;;;;;19.50;49.05;100524.19;5052493;28;20049;-50
2023/03/31 11:52:34;;;;;;;5.03;2.40;;;;;;;19.51;49.00;100528.56;5052782;28;20055;-47
2023/03/31 11:55:14;;;;;;;4.55;2.22;;;;;;;19.51;48.99;100522.34;5052702;28;20049;-49
2023/03/31 11:57:53;;;;;;;7.65;2.40;;;;;;;19.51;49.21;100506.22;5052457;28;20049;-49